Time;durP1;ratioP1;P1;durP2;ratioP2;P2;SDS_P1;SDS_P2;PMS_P1;PMS_P2;Temp;Humidity;BMP_temperature;BMP_pressure;BME280_temperature;BME280_humidity;BME280_pressure;Samples;Min_cycle;Max_cycle;Signal;HPM_P1;HPM_P2
2023/07/23 00:00:38;;;;;;;2.70;1.77;;;;;;;21.06;88.02;100578.50;20229120;29;1105349;-65
2023/07/23 00:10:39;;;;;;;3.78;2.10;;;;;;;21.03;87.48;100586.97;20266175;29;20729;-65
2023/07/23 00:20:41;;;;;;;3.65;2.30;;;;;;;21.00;86.89;100572.75;20264671;29;20053;-65
2023/07/23 00:30:43;;;;;;;2.20;1.58;;;;;;;21.00;86.93;100556.50;20265737;29;20045;-65
2023/07/23 00:40:44;;;;;;;3.33;1.83;;;;;;;20.98;86.64;100547.72;20264000;29;20579;-65
2023/07/23 00:50:46;;;;;;;2.70;1.73;;;;;;;20.96;86.64;100538.91;20262104;29;20056;-65
2023/07/23 01:00:49;;;;;;;2.63;1.75;;;;;;;20.94;86.53;100524.69;20262844;29;20057;-65
2023/07/23 01:10:51;;;;;;;3.00;1.90;;;;;;;20.94;86.38;100510.31;20262883;29;20060;-65
2023/07/23 01:20:53;;;;;;;2.72;1.80;;;;;;;20.93;86.17;100495.94;20262211;29;20398;-65
2023/07/23 01:30:55;;;;;;;2.83;2.15;;;;;;;20.92;86.36;100485.28;20259566;29;20072;-65
2023/07/23 01:40:57;;;;;;;2.67;1.83;;;;;;;20.89;85.89;100472.94;20260706;29;20417;-65
2023/07/23 01:50:59;;;;;;;2.28;1.77;;;;;;;20.88;86.15;100465.84;20259588;29;20056;-65
2023/07/23 02:01:01;;;;;;;2.88;2.10;;;;;;;20.85;84.91;100444.53;20242316;29;20493;-65
2023/07/23 02:11:03;;;;;;;3.60;2.00;;;;;;;20.85;85.17;100436.41;20258251;29;20761;-65
2023/07/23 02:21:05;;;;;;;2.97;1.88;;;;;;;20.82;85.10;100407.81;20259362;29;20064;-65
2023/07/23 02:31:07;;;;;;;2.80;1.65;;;;;;;20.82;85.21;100404.28;20258720;29;20088;-65
2023/07/23 02:41:09;;;;;;;2.15;1.70;;;;;;;20.81;84.56;100395.31;20257000;29;20429;-65
2023/07/23 02:51:11;;;;;;;2.95;2.30;;;;;;;20.79;84.47;100391.94;20257647;29;20056;-65
2023/07/23 03:01:12;;;;;;;2.47;1.90;;;;;;;20.73;84.30;100360.94;20257494;29;20084;-65
2023/07/23 03:11:14;;;;;;;2.53;1.98;;;;;;;20.77;84.25;100361.47;20271365;29;20147;-65
2023/07/23 03:21:16;;;;;;;2.92;2.00;;;;;;;20.77;84.24;100347.09;20269957;29;20505;-65
2023/07/23 03:31:18;;;;;;;3.63;1.95;;;;;;;20.76;84.14;100332.72;20268764;29;20139;-65
2023/07/23 03:41:20;;;;;;;2.53;1.85;;;;;;;20.76;84.33;100334.56;20269405;29;20059;-65
2023/07/23 03:51:22;;;;;;;3.28;2.13;;;;;;;20.76;86.51;100327.31;20267774;29;20060;-65
2023/07/23 04:01:23;;;;;;;3.13;2.33;;;;;;;20.76;86.23;100305.69;20265859;29;20115;-65
2023/07/23 04:11:25;;;;;;;3.25;1.92;;;;;;;20.75;85.85;100309.41;20267045;29;20129;-65
2023/07/23 04:21:27;;;;;;;3.63;2.03;;;;;;;20.75;84.84;100301.28;20248974;29;20075;-65
2023/07/23 04:31:31;;;;;;;3.05;1.80;;;;;;;20.71;84.34;100276.41;20249426;29;20433;-65
2023/07/23 04:41:33;;;;;;;2.40;1.90;;;;;;;20.72;84.28;100271.88;20305610;29;20060;-65
2023/07/23 04:51:35;;;;;;;2.92;2.22;;;;;;;20.70;84.12;100263.09;20263719;29;20059;-65
2023/07/23 05:01:36;;;;;;;3.15;1.95;;;;;;;20.69;83.94;100245.16;20263330;29;20139;-65
2023/07/23 05:11:38;;;;;;;2.67;2.00;;;;;;;20.67;84.55;100231.81;20262148;29;20869;-65
2023/07/23 05:21:40;;;;;;;3.63;2.30;;;;;;;20.66;84.13;100216.59;20261956;29;20064;-65
2023/07/23 05:31:42;;;;;;;2.58;1.73;;;;;;;20.66;84.83;100197.66;20261031;29;20085;-65
2023/07/23 05:41:44;;;;;;;2.40;1.63;;;;;;;20.65;84.30;100198.69;20260375;29;20135;-64
2023/07/23 05:51:46;;;;;;;2.80;2.40;;;;;;;20.65;85.10;100179.75;20259831;29;20057;-64
2023/07/23 06:01:47;;;;;;;2.88;2.00;;;;;;;20.64;84.49;100175.34;20238841;29;20129;-64
2023/07/23 06:11:51;;;;;;;3.88;1.90;;;;;;;20.62;84.11;100182.78;20257344;29;20063;-64
2023/07/23 06:21:53;;;;;;;2.50;1.88;;;;;;;20.63;84.14;100176.38;20257424;29;20140;-64
2023/07/23 06:31:55;;;;;;;3.33;2.35;;;;;;;20.61;83.91;100162.19;20258412;29;20132;-64
2023/07/23 06:41:57;;;;;;;4.03;1.98;;;;;;;20.62;84.38;100163.88;20267735;29;20075;-64
2023/07/23 06:51:59;;;;;;;2.80;2.20;;;;;;;20.62;84.47;100163.88;20272533;29;20059;-64
2023/07/23 07:02:01;;;;;;;3.63;2.40;;;;;;;20.61;84.62;100164.88;20271363;29;20053;-65
2023/07/23 07:12:03;;;;;;;2.92;2.50;;;;;;;20.62;84.83;100161.16;20270700;29;20088;-64
2023/07/23 07:22:05;;;;;;;3.53;2.50;;;;;;;20.61;84.99;100159.47;20269805;29;20044;-64
2023/07/23 07:32:07;;;;;;;6.20;2.85;;;;;;;20.63;85.86;100162.84;20249262;29;20045;-65
2023/07/23 07:42:09;;;;;;;5.63;3.42;;;;;;;20.68;87.99;100160.47;20246612;29;20056;-65
2023/07/23 07:52:11;;;;;;;8.90;2.53;;;;;;;20.73;88.56;100155.38;20245340;29;20434;-65
2023/07/23 08:02:13;;;;;;;6.78;2.50;;;;;;;20.77;88.99;100160.44;20220259;29;20052;-65
2023/07/23 08:12:16;;;;;;;5.95;2.70;;;;;;;20.80;89.63;100160.16;20250559;29;20060;-64
2023/07/23 08:22:17;;;;;;;4.88;2.60;;;;;;;20.85;90.40;100165.88;20240650;29;20132;-64
2023/07/23 08:32:22;;;;;;;7.70;2.90;;;;;;;20.90;91.07;100166.19;20239697;29;20525;-64
2023/07/23 08:43:19;;;;;;;5.63;2.43;;;;;;;20.98;91.64;100165.31;20241840;29;20140;-65
2023/07/23 08:53:21;;;;;;;4.53;2.55;;;;;;;21.01;91.90;100162.28;20192220;29;20060;-66
2023/07/23 09:03:23;;;;;;;7.18;3.08;;;;;;;21.08;92.00;100184.06;20233974;29;20075;-66
2023/07/23 09:13:32;;;;;;;7.55;2.67;;;;;;;21.11;92.12;100175.56;20244241;29;20045;-66
2023/07/23 09:23:34;;;;;;;6.03;2.65;;;;;;;21.09;92.13;100170.34;20250703;29;20048;-66
2023/07/23 09:33:36;;;;;;;7.70;2.85;;;;;;;21.12;92.43;100186.25;20233792;29;20119;-66
2023/07/23 09:43:39;;;;;;;3.75;2.25;;;;;;;21.12;92.70;100196.22;20223951;29;20048;-66
2023/07/23 09:53:45;;;;;;;4.28;2.50;;;;;;;21.11;92.72;100197.22;20235486;29;20049;-66
2023/07/23 10:03:48;;;;;;;5.45;2.10;;;;;;;21.11;92.80;100194.53;20201346;29;20057;-65
2023/07/23 10:13:51;;;;;;;4.22;2.47;;;;;;;21.09;92.51;100193.84;20221193;29;20128;-65
2023/07/23 10:23:55;;;;;;;4.93;2.15;;;;;;;21.08;92.07;100189.47;20252711;29;20395;-65
2023/07/23 10:33:57;;;;;;;3.30;1.90;;;;;;;21.06;91.76;100191.50;20260235;29;20568;-65
2023/07/23 10:43:59;;;;;;;4.88;2.17;;;;;;;21.05;91.15;100192.53;20246507;29;20485;-65
2023/07/23 10:54:06;;;;;;;3.05;1.90;;;;;;;21.01;90.79;100190.16;20249089;29;20104;-65
2023/07/23 11:04:12;;;;;;;2.20;1.80;;;;;;;21.01;91.67;100197.47;20253591;29;20124;-65
2023/07/23 11:14:19;;;;;;;2.42;2.00;;;;;;;21.01;91.99;100195.56;20246489;29;20064;-65
2023/07/23 11:24:21;;;;;;;17.25;3.22;;;;;;;21.03;91.94;100197.25;20244556;29;20064;-65
2023/07/23 11:34:23;;;;;;;8.15;2.72;;;;;;;21.01;92.03;100198.28;20240202;29;20128;-65
2023/07/23 11:44:25;;;;;;;5.80;2.38;;;;;;;20.99;91.97;100186.78;20268096;29;20445;-65
2023/07/23 11:54:27;;;;;;;6.53;2.17;;;;;;;21.00;93.52;100190.34;20268721;29;20522;-65
2023/07/23 12:04:28;;;;;;;6.78;3.20;;;;;;;20.99;93.10;100186.78;20268286;29;20120;-65
2023/07/23 12:14:30;;;;;;;4.50;2.33;;;;;;;20.97;92.74;100185.25;20261423;29;20128;-65
2023/07/23 12:24:32;;;;;;;3.63;2.28;;;;;;;20.96;92.49;100181.72;20320840;29;20080;-65
2023/07/23 12:34:34;;;;;;;4.97;1.98;;;;;;;20.95;92.25;100180.03;20342982;29;20477;-65
2023/07/23 12:44:35;;;;;;;2.50;1.77;;;;;;;20.94;92.86;100178.34;20287638;29;20051;-65
2023/07/23 12:54:37;;;;;;;2.92;1.90;;;;;;;20.94;92.56;100177.50;20253002;29;20131;-66
2023/07/23 13:04:42;;;;;;;5.43;2.30;;;;;;;21.01;95.50;100164.97;20192857;29;20074;-65
2023/07/23 13:14:43;;;;;;;4.55;2.28;;;;;;;21.08;96.16;100152.44;20230703;29;20052;-65
2023/07/23 13:24:45;;;;;;;2.50;2.17;;;;;;;21.10;96.42;100163.06;20219954;29;20048;-65
2023/07/23 13:34:47;;;;;;;2.33;1.73;;;;;;;21.12;96.86;100158.31;20193641;29;20060;-65
2023/07/23 13:44:48;;;;;;;2.80;2.17;;;;;;;21.17;96.37;100155.94;20213567;29;20075;-65
2023/07/23 13:54:50;;;;;;;3.72;2.42;;;;;;;21.20;97.00;100150.16;20208997;29;20125;-66
2023/07/23 14:04:52;;;;;;;4.03;2.30;;;;;;;21.16;97.10;100148.81;20218240;29;20052;-65
2023/07/23 14:14:53;;;;;;;5.00;2.90;;;;;;;21.21;97.29;100141.03;20227057;29;20053;-63
2023/07/23 14:24:55;;;;;;;5.57;2.88;;;;;;;21.21;95.95;100135.63;20217352;29;20127;-64
2023/07/23 14:34:57;;;;;;;7.97;3.25;;;;;;;21.21;96.21;100143.75;20224200;29;20049;-62
2023/07/23 14:44:58;;;;;;;6.82;3.33;;;;;;;21.23;96.96;100122.75;20188704;29;20074;-66
2023/07/23 14:55:02;;;;;;;4.65;3.35;;;;;;;21.20;98.93;100117.69;20243747;29;20052;-65
2023/07/23 15:05:06;;;;;;;8.77;4.30;;;;;;;21.32;99.67;100126.25;20217329;29;20052;-66
2023/07/23 15:15:08;;;;;;;10.63;3.85;;;;;;;21.39;100.00;100115.56;20227489;29;20061;-69
2023/07/23 15:25:11;;;;;;;8.77;5.55;;;;;;;21.46;100.00;100100.28;20244745;29;20049;-64
2023/07/23 15:35:12;;;;;;;17.63;6.15;;;;;;;21.51;100.00;100107.88;20225171;29;20163;-65
2023/07/23 15:45:14;;;;;;;9.18;4.43;;;;;;;21.52;100.00;100112.25;20211306;29;20056;-64
2023/07/23 15:55:16;;;;;;;12.55;5.40;;;;;;;21.54;100.00;100107.50;20237771;29;20049;-68
2023/07/23 16:05:17;;;;;;;12.35;5.30;;;;;;;21.52;100.00;100102.25;20244714;29;20049;-67
2023/07/23 16:15:20;;;;;;;8.15;4.30;;;;;;;21.55;100.00;100098.38;20261444;29;20060;-69
2023/07/23 16:25:22;;;;;;;9.63;4.38;;;;;;;21.57;100.00;100089.03;20253330;29;20060;-64
2023/07/23 16:35:24;;;;;;;8.27;3.65;;;;;;;21.61;100.00;100091.38;20233087;29;20049;-67
2023/07/23 16:45:26;;;;;;;5.82;3.83;;;;;;;21.63;100.00;100079.34;20256067;29;20048;-65
2023/07/23 16:55:27;;;;;;;6.97;3.80;;;;;;;21.65;100.00;100076.47;20246313;29;20093;-65
2023/07/23 17:05:29;;;;;;;5.20;3.65;;;;;;;21.65;100.00;100066.50;20222395;29;20160;-69
2023/07/23 17:15:31;;;;;;;9.20;4.18;;;;;;;21.63;100.00;100067.66;20233668;29;20056;-67
2023/07/23 17:25:32;;;;;;;9.70;4.00;;;;;;;21.55;100.00;100077.53;20231699;29;20398;-66
2023/07/23 17:35:34;;;;;;;4.80;2.63;;;;;;;21.56;100.00;100070.25;20216505;29;20135;-65
2023/07/23 17:45:36;;;;;;;4.20;2.47;;;;;;;21.58;100.00;100066.31;20233165;29;20124;-64
2023/07/23 17:55:37;;;;;;;5.38;2.80;;;;;;;21.63;100.00;100054.09;20224713;29;20070;-64
2023/07/23 18:05:39;;;;;;;6.53;2.75;;;;;;;21.59;100.00;100057.19;20273264;29;20548;-64
2023/07/23 18:15:41;;;;;;;6.68;3.00;;;;;;;21.55;98.55;100053.16;20213767;29;20421;-64
2023/07/23 18:25:43;;;;;;;4.47;2.50;;;;;;;21.44;97.45;100043.59;20241237;29;20553;-64
2023/07/23 18:36:05;;;;;;;4.35;2.50;;;;;;;21.44;96.65;100050.88;20265203;29;20056;-64
2023/07/23 18:46:06;;;;;;;3.95;2.58;;;;;;;21.36;96.26;100056.34;20274073;29;20532;-64
2023/07/23 18:56:08;;;;;;;5.18;2.80;;;;;;;21.37;96.09;100052.63;20272995;29;20424;-64
2023/07/23 19:06:10;;;;;;;4.68;3.03;;;;;;;21.36;95.70;100057.19;20269777;29;20064;-64
2023/07/23 19:16:12;;;;;;;4.25;2.45;;;;;;;21.36;95.24;100064.47;20259903;29;20450;-64
2023/07/23 19:26:14;;;;;;;4.88;2.75;;;;;;;21.34;94.77;100070.06;20260407;29;20056;-64
2023/07/23 19:36:16;;;;;;;3.85;2.30;;;;;;;21.34;94.50;100074.66;20260938;29;20096;-64
2023/07/23 19:46:17;;;;;;;5.93;2.40;;;;;;;21.32;94.40;100072.09;20247277;29;20077;-64
2023/07/23 19:56:20;;;;;;;3.47;2.25;;;;;;;21.31;94.16;100081.25;20252556;29;20057;-64
2023/07/23 20:06:21;;;;;;;4.07;2.72;;;;;;;21.32;97.72;100092.94;20268479;29;20048;-64
2023/07/23 20:16:23;;;;;;;3.97;2.95;;;;;;;21.30;98.77;100096.66;20238159;29;20470;-64
2023/07/23 20:26:25;;;;;;;4.90;3.45;;;;;;;21.28;98.01;100097.84;20266173;29;20060;-64
2023/07/23 20:36:28;;;;;;;4.18;2.85;;;;;;;21.28;97.60;100090.59;20261899;29;20063;-64
2023/07/23 20:46:30;;;;;;;3.92;2.80;;;;;;;21.27;97.23;100105.13;20258201;29;20695;-65
2023/07/23 20:56:32;;;;;;;3.10;2.50;;;;;;;21.28;96.96;100101.41;20263080;29;20064;-64
2023/07/23 21:06:34;;;;;;;4.28;3.20;;;;;;;21.25;97.42;100093.66;20232618;29;20129;-64
2023/07/23 21:16:35;;;;;;;3.25;2.15;;;;;;;21.25;97.43;100093.66;20184575;29;20075;-64
2023/07/23 21:26:40;;;;;;;4.57;2.70;;;;;;;21.24;97.59;100081.13;20238866;29;20075;-64
2023/07/23 21:36:42;;;;;;;;;;;;;;;21.22;98.07;100077.78;20260652;29;20144;-64
2023/07/23 21:46:44;;;;;;;4.45;3.08;;;;;;;21.18;98.15;100079.13;20201469;29;19923;-64
2023/07/23 21:56:46;;;;;;;3.70;2.50;;;;;;;21.18;98.46;100075.59;20235760;29;20053;-64
2023/07/23 22:06:48;;;;;;;3.17;2.75;;;;;;;21.17;98.68;100077.44;20198630;29;20048;-64
2023/07/23 22:16:50;;;;;;;3.05;2.40;;;;;;;21.16;98.56;100075.75;20222441;29;20056;-64
2023/07/23 22:26:51;;;;;;;3.65;2.65;;;;;;;21.08;98.64;100055.00;20208664;29;20530;-65
2023/07/23 22:36:53;;;;;;;2.70;2.35;;;;;;;21.15;98.52;100072.22;20186854;29;20571;-64
2023/07/23 22:46:55;;;;;;;3.00;2.60;;;;;;;21.14;98.42;100077.78;20199754;29;20077;-64
2023/07/23 22:56:57;;;;;;;4.07;2.60;;;;;;;21.13;98.33;100071.56;20258192;29;20074;-64
2023/07/23 23:06:58;;;;;;;2.67;2.25;;;;;;;21.12;97.62;100066.31;20215904;29;20482;-64
2023/07/23 23:17:00;;;;;;;3.33;2.58;;;;;;;21.11;97.43;100059.22;20179889;29;20053;-64
2023/07/23 23:27:02;;;;;;;2.83;2.50;;;;;;;21.09;97.15;100047.72;20232101;29;20067;-64
2023/07/23 23:37:03;;;;;;;2.90;2.33;;;;;;;21.07;97.00;100052.47;20258003;29;20085;-64
2023/07/23 23:47:05;;;;;;;2.58;2.22;;;;;;;21.07;96.96;100036.22;20227506;29;20045;-64
2023/07/23 23:57:07;;;;;;;3.17;2.70;;;;;;;21.00;97.11;100031.53;20217005;29;20049;-64
